South Walpole, Massachusetts
Current Conditions -  °F | °C
As of 7:53 PM on Friday 24 Oct 2014 (Local Time) from KOWD Reporting Station
Overcast Overcast  
Wind Chill: 51°   Ceiling: 2900
Heat Index: 51°   Visibility: 10mi
Dew Point: 43°   Wind: 7mph
Humidity: 74%   Direction: 290°WNW
Pressure: 29.73"   Gusts: NA
Location:  42.1°N, 71.26°W
Report Text: KOWD 242353Z 29006KT 10SM OVC029 11/06 A2973 RMK AO2 SLP066 T01060061 10128 20106 51012
Loading
Personal Weather Stations






























Interactive Weather Map
Tropical Storm Tracking
New forecast layout! Learn more

10-Day Weather Forecast

Advertisements
Track Severe Weather on mobile